Time,TemperatureF,DewpointF,PressureIn,WindDirection,WindDirectionDegrees,WindSpeedMPH,WindSpeedGustMPH,Humidity,HourlyPrecipIn,Conditions,Clouds,dailyrainin,SoftwareType,DateUTC
2013-01-11 00:10:00,32.7,30.0,30.54,ESE,110,0.0,1.0,88,0.00,,,0.00,weatherlink.com 1.10,2013-01-11 05:10:00,
2013-01-11 00:25:00,32.7,30.0,30.54,ESE,108,0.0,1.0,88,0.00,,,0.00,weatherlink.com 1.10,2013-01-11 05:25:00,
2013-01-11 00:40:00,32.3,29.0,30.55,ESE,108,0.0,1.0,88,0.00,,,0.00,weatherlink.com 1.10,2013-01-11 05:40:00,
2013-01-11 00:55:00,32.1,29.0,30.54,ESE,103,0.0,1.0,89,0.00,,,0.00,weatherlink.com 1.10,2013-01-11 05:55:00,
2013-01-11 01:10:00,32.0,29.0,30.53,ESE,103,0.0,1.0,89,0.00,,,0.00,weatherlink.com 1.10,2013-01-11 06:10:00,
2013-01-11 01:25:00,32.1,29.0,30.53,East,97,0.0,1.0,89,0.00,,,0.00,weatherlink.com 1.10,2013-01-11 06:25:00,
2013-01-11 01:40:00,32.2,29.0,30.53,East,91,0.0,2.0,89,0.00,,,0.00,weatherlink.com 1.10,2013-01-11 06:40:00,
2013-01-11 01:55:00,32.0,29.0,30.52,East,85,0.0,1.0,89,0.00,,,0.00,weatherlink.com 1.10,2013-01-11 06:55:00,
2013-01-11 02:10:00,31.9,29.0,30.54,WSW,240,1.0,1.0,89,0.00,,,0.00,weatherlink.com 1.10,2013-01-11 07:10:00,
2013-01-11 02:25:00,32.3,30.0,30.54,ESE,105,1.0,1.0,89,0.00,,,0.00,weatherlink.com 1.10,2013-01-11 07:25:00,
2013-01-11 02:41:00,32.4,30.0,30.52,ENE,75,2.0,2.0,89,0.00,,,0.00,weatherlink.com 1.10,2013-01-11 07:41:00,
2013-01-11 02:56:00,32.4,30.0,30.52,East,94,1.0,1.0,89,0.00,,,0.00,weatherlink.com 1.10,2013-01-11 07:56:00,
2013-01-11 03:11:00,32.3,29.0,30.52,ENE,63,0.0,1.0,88,0.00,,,0.00,weatherlink.com 1.10,2013-01-11 08:11:00,
2013-01-11 03:26:00,31.6,29.0,30.51,ENE,63,0.0,1.0,88,0.00,,,0.00,weatherlink.com 1.10,2013-01-11 08:26:00,
2013-01-11 03:41:00,31.2,28.0,30.51,East,89,0.0,1.0,88,0.00,,,0.00,weatherlink.com 1.10,2013-01-11 08:41:00,
2013-01-11 03:56:00,30.6,28.0,30.51,East,96,1.0,1.0,89,0.00,,,0.00,weatherlink.com 1.10,2013-01-11 08:56:00,
2013-01-11 04:11:00,30.9,28.0,30.50,East,96,0.0,0.0,90,0.00,,,0.00,weatherlink.com 1.10,2013-01-11 09:11:00,
2013-01-11 04:26:00,31.2,29.0,30.50,East,96,0.0,0.0,90,0.00,,,0.00,weatherlink.com 1.10,2013-01-11 09:26:00,
2013-01-11 04:41:00,31.3,29.0,30.49,East,96,0.0,0.0,90,0.00,,,0.00,weatherlink.com 1.10,2013-01-11 09:41:00,
2013-01-11 04:56:00,31.7,29.0,30.49,SE,137,0.0,2.0,90,0.00,,,0.00,weatherlink.com 1.10,2013-01-11 09:56:00,
2013-01-11 05:11:00,32.9,30.0,30.49,ENE,69,0.0,3.0,88,0.00,,,0.00,weatherlink.com 1.10,2013-01-11 10:11:00,
2013-01-11 05:26:00,32.7,30.0,30.50,NNW,330,0.0,2.0,88,0.00,,,0.00,weatherlink.com 1.10,2013-01-11 10:26:00,
2013-01-11 05:41:00,32.0,29.0,30.50,ENE,72,0.0,1.0,88,0.00,,,0.00,weatherlink.com 1.10,2013-01-11 10:41:00,
2013-01-11 05:56:00,32.6,30.0,30.50,SSW,211,0.0,2.0,88,0.00,,,0.00,weatherlink.com 1.10,2013-01-11 10:56:00,
2013-01-11 06:11:00,33.3,30.0,30.48,East,91,1.0,2.0,88,0.00,,,0.00,weatherlink.com 1.10,2013-01-11 11:11:00,
2013-01-11 06:27:00,35.5,30.0,30.47,ENE,77,1.0,7.0,80,0.00,,,0.00,weatherlink.com 1.10,2013-01-11 11:27:00,
2013-01-11 06:42:00,37.0,30.0,30.46,ENE,75,0.0,1.0,76,0.00,,,0.00,weatherlink.com 1.10,2013-01-11 11:42:00,
2013-01-11 06:57:00,37.0,30.0,30.46,East,81,2.0,3.0,76,0.00,,,0.00,weatherlink.com 1.10,2013-01-11 11:57:00,
2013-01-11 07:12:00,37.3,30.0,30.45,ENE,77,0.0,4.0,74,0.00,,,0.00,weatherlink.com 1.10,2013-01-11 12:12:00,
2013-01-11 07:27:00,37.6,30.0,30.45,SW,224,0.0,2.0,74,0.00,,,0.00,weatherlink.com 1.10,2013-01-11 12:27:00,
2013-01-11 07:42:00,37.6,30.0,30.46,East,101,0.0,1.0,75,0.00,,,0.00,weatherlink.com 1.10,2013-01-11 12:42:00,
2013-01-11 07:57:00,36.5,31.0,30.47,SE,140,1.0,2.0,79,0.00,,,0.00,weatherlink.com 1.10,2013-01-11 12:57:00,
2013-01-11 08:11:00,36.4,31.0,30.47,NNW,335,1.0,2.0,80,0.00,,,0.00,weatherlink.com 1.10,2013-01-11 13:11:00,
2013-01-11 08:26:00,37.7,31.0,30.46,ENE,73,1.0,4.0,78,0.00,,,0.00,weatherlink.com 1.10,2013-01-11 13:26:00,
2013-01-11 08:41:00,38.6,32.0,30.47,SE,136,1.0,2.0,76,0.00,,,0.00,weatherlink.com 1.10,2013-01-11 13:41:00,
2013-01-11 08:56:00,39.3,32.0,30.45,SE,128,0.0,4.0,75,0.00,,,0.00,weatherlink.com 1.10,2013-01-11 13:56:00,
2013-01-11 09:12:00,39.6,32.0,30.44,East,89,1.0,3.0,75,0.00,,,0.00,weatherlink.com 1.10,2013-01-11 14:12:00,
2013-01-11 09:27:00,39.9,33.0,30.45,East,82,1.0,5.0,76,0.00,,,0.00,weatherlink.com 1.10,2013-01-11 14:27:00,
2013-01-11 09:42:00,40.1,33.0,30.42,ESE,119,2.0,5.0,76,0.00,,,0.00,weatherlink.com 1.10,2013-01-11 14:42:00,
2013-01-11 09:57:00,39.6,34.0,30.42,ENE,74,1.0,3.0,81,0.00,,,0.00,weatherlink.com 1.10,2013-01-11 14:57:00,
2013-01-11 10:12:00,39.8,35.0,30.42,East,81,2.0,3.0,82,0.00,,,0.00,weatherlink.com 1.10,2013-01-11 15:12:00,
2013-01-11 10:27:00,40.6,35.0,30.41,SE,131,0.0,4.0,81,0.00,,,0.00,weatherlink.com 1.10,2013-01-11 15:27:00,
2013-01-11 10:42:00,41.4,36.0,30.40,ENE,64,2.0,5.0,80,0.00,,,0.00,weatherlink.com 1.10,2013-01-11 15:42:00,
2013-01-11 10:57:00,41.9,36.0,30.38,ESE,108,1.0,8.0,79,0.00,,,0.00,weatherlink.com 1.10,2013-01-11 15:57:00,
2013-01-11 11:12:00,42.0,36.0,30.39,SE,138,1.0,4.0,79,0.00,,,0.00,weatherlink.com 1.10,2013-01-11 16:12:00,
2013-01-11 11:27:00,42.5,36.0,30.38,South,181,1.0,5.0,79,0.00,,,0.00,weatherlink.com 1.10,2013-01-11 16:27:00,
2013-01-11 11:42:00,42.4,36.0,30.37,East,91,2.0,5.0,78,0.00,,,0.00,weatherlink.com 1.10,2013-01-11 16:42:00,
2013-01-11 11:57:00,42.6,37.0,30.36,ENE,58,1.0,2.0,79,0.00,,,0.00,weatherlink.com 1.10,2013-01-11 16:57:00,
2013-01-11 12:11:00,42.7,36.0,30.35,East,85,2.0,4.0,78,0.00,,,0.00,weatherlink.com 1.10,2013-01-11 17:11:00,
2013-01-11 12:26:00,43.0,37.0,30.32,SSW,193,2.0,6.0,78,0.00,,,0.00,weatherlink.com 1.10,2013-01-11 17:26:00,
2013-01-11 12:41:00,43.5,37.0,30.31,SSE,155,0.0,5.0,79,0.00,,,0.00,weatherlink.com 1.10,2013-01-11 17:41:00,
2013-01-11 12:56:00,44.0,38.0,30.30,ESE,118,3.0,6.0,78,0.00,,,0.00,weatherlink.com 1.10,2013-01-11 17:56:00,
2013-01-11 13:11:00,44.3,38.0,30.30,ESE,118,4.0,6.0,78,0.00,,,0.00,weatherlink.com 1.10,2013-01-11 18:11:00,
2013-01-11 13:26:00,44.9,38.0,30.29,SE,132,0.0,6.0,77,0.00,,,0.00,weatherlink.com 1.10,2013-01-11 18:26:00,
2013-01-11 13:41:00,44.8,38.0,30.28,SW,236,1.0,6.0,78,0.00,,,0.00,weatherlink.com 1.10,2013-01-11 18:41:00,
2013-01-11 13:57:00,45.0,39.0,30.28,NNE,25,0.0,5.0,79,0.00,,,0.00,weatherlink.com 1.10,2013-01-11 18:57:00,
2013-01-11 14:12:00,45.3,39.0,30.28,SSW,212,0.0,3.0,78,0.00,,,0.00,weatherlink.com 1.10,2013-01-11 19:12:00,
2013-01-11 14:27:00,45.3,39.0,30.27,SE,124,3.0,5.0,79,0.00,,,0.00,weatherlink.com 1.10,2013-01-11 19:27:00,
2013-01-11 14:42:00,44.8,40.0,30.26,ESE,113,2.0,4.0,82,0.00,,,0.00,weatherlink.com 1.10,2013-01-11 19:42:00,
2013-01-11 14:58:00,43.9,40.0,30.27,ENE,65,0.0,1.0,86,0.02,,,0.02,weatherlink.com 1.10,2013-01-11 19:58:00,
2013-01-11 15:12:00,43.4,40.0,30.27,ENE,65,0.0,0.0,87,0.02,,,0.02,weatherlink.com 1.10,2013-01-11 20:12:00,
2013-01-11 15:27:00,42.9,40.0,30.25,ENE,68,0.0,2.0,89,0.02,,,0.02,weatherlink.com 1.10,2013-01-11 20:27:00,
2013-01-11 15:42:00,42.7,40.0,30.24,NW,322,0.0,2.0,89,0.06,,,0.06,weatherlink.com 1.10,2013-01-11 20:42:00,
2013-01-11 15:57:00,42.5,40.0,30.23,East,83,0.0,2.0,90,0.07,,,0.08,weatherlink.com 1.10,2013-01-11 20:57:00,
2013-01-11 16:12:00,42.4,40.0,30.21,East,101,0.0,2.0,90,0.07,,,0.09,weatherlink.com 1.10,2013-01-11 21:12:00,
2013-01-11 16:27:00,42.3,40.0,30.20,NE,56,0.0,1.0,90,0.08,,,0.10,weatherlink.com 1.10,2013-01-11 21:27:00,
2013-01-11 16:42:00,42.4,40.0,30.20,NNE,29,1.0,2.0,90,0.06,,,0.12,weatherlink.com 1.10,2013-01-11 21:42:00,
2013-01-11 16:57:00,42.4,40.0,30.21,ENE,65,0.0,3.0,90,0.08,,,0.16,weatherlink.com 1.10,2013-01-11 21:57:00,
2013-01-11 17:12:00,42.4,40.0,30.21,WNW,289,0.0,2.0,90,0.11,,,0.20,weatherlink.com 1.10,2013-01-11 22:12:00,
2013-01-11 17:27:00,42.3,40.0,30.21,SSE,152,0.0,2.0,91,0.18,,,0.28,weatherlink.com 1.10,2013-01-11 22:27:00,
2013-01-11 17:42:00,42.1,40.0,30.21,SSE,153,1.0,1.0,91,0.23,,,0.34,weatherlink.com 1.10,2013-01-11 22:42:00,
2013-01-11 17:58:00,41.9,40.0,30.21,SSE,152,0.0,1.0,91,0.19,,,0.35,weatherlink.com 1.10,2013-01-11 22:58:00,
2013-01-11 18:12:00,41.9,40.0,30.20,SSE,153,0.0,0.0,91,0.17,,,0.36,weatherlink.com 1.10,2013-01-11 23:12:00,
2013-01-11 18:27:00,41.9,40.0,30.19,SSE,152,0.0,1.0,92,0.11,,,0.37,weatherlink.com 1.10,2013-01-11 23:27:00,
2013-01-11 18:42:00,41.8,40.0,30.19,SSE,152,0.0,1.0,92,0.03,,,0.37,weatherlink.com 1.10,2013-01-11 23:42:00,
2013-01-11 18:57:00,41.7,40.0,30.19,SSE,152,0.0,0.0,92,0.02,,,0.37,weatherlink.com 1.10,2013-01-11 23:57:00,
2013-01-11 19:12:00,41.7,40.0,30.18,SSE,152,0.0,0.0,92,0.02,,,0.38,weatherlink.com 1.10,2013-01-12 00:12:00,
2013-01-11 19:27:00,41.8,40.0,30.18,SSE,152,0.0,1.0,92,0.03,,,0.40,weatherlink.com 1.10,2013-01-12 00:27:00,
2013-01-11 19:42:00,41.8,40.0,30.18,SSE,152,0.0,1.0,92,0.04,,,0.41,weatherlink.com 1.10,2013-01-12 00:42:00,
2013-01-11 19:57:00,41.7,40.0,30.16,SSE,153,0.0,1.0,92,0.04,,,0.41,weatherlink.com 1.10,2013-01-12 00:57:00,
2013-01-11 20:12:00,41.8,40.0,30.17,SSW,203,0.0,1.0,92,0.03,,,0.41,weatherlink.com 1.10,2013-01-12 01:12:00,
2013-01-11 20:27:00,41.7,40.0,30.15,SSE,162,0.0,1.0,92,0.01,,,0.41,weatherlink.com 1.10,2013-01-12 01:27:00,
2013-01-11 20:42:00,41.8,40.0,30.16,East,89,0.0,1.0,92,0.00,,,0.41,weatherlink.com 1.10,2013-01-12 01:42:00,
2013-01-11 20:57:00,41.7,40.0,30.16,East,89,0.0,0.0,92,0.00,,,0.41,weatherlink.com 1.10,2013-01-12 01:57:00,
2013-01-11 21:12:00,41.4,39.0,30.16,East,89,0.0,0.0,92,0.00,,,0.41,weatherlink.com 1.10,2013-01-12 02:12:00,
2013-01-11 21:27:00,41.3,39.0,30.15,East,89,0.0,0.0,92,0.00,,,0.41,weatherlink.com 1.10,2013-01-12 02:27:00,
2013-01-11 21:43:00,41.4,39.0,30.13,East,98,0.0,1.0,92,0.00,,,0.41,weatherlink.com 1.10,2013-01-12 02:43:00,
2013-01-11 21:58:00,41.3,39.0,30.14,North,1,0.0,0.0,92,0.00,,,0.41,weatherlink.com 1.10,2013-01-12 02:58:00,
2013-01-11 22:13:00,41.2,39.0,30.14,North,3,0.0,1.0,92,0.00,,,0.41,weatherlink.com 1.10,2013-01-12 03:13:00,
2013-01-11 22:28:00,41.0,39.0,30.14,North,3,0.0,1.0,93,0.00,,,0.41,weatherlink.com 1.10,2013-01-12 03:28:00,
2013-01-11 22:43:00,41.1,39.0,30.14,North,3,0.0,0.0,93,0.00,,,0.41,weatherlink.com 1.10,2013-01-12 03:43:00,
2013-01-11 22:58:00,41.1,39.0,30.14,North,1,0.0,0.0,93,0.00,,,0.41,weatherlink.com 1.10,2013-01-12 03:58:00,
2013-01-11 23:13:00,41.0,39.0,30.14,North,4,0.0,1.0,93,0.00,,,0.41,weatherlink.com 1.10,2013-01-12 04:13:00,
2013-01-11 23:28:00,41.2,39.0,30.14,North,3,0.0,0.0,93,0.00,,,0.41,weatherlink.com 1.10,2013-01-12 04:28:00,
2013-01-11 23:43:00,41.1,39.0,30.14,North,4,0.0,0.0,93,0.00,,,0.41,weatherlink.com 1.10,2013-01-12 04:43:00,
2013-01-11 23:58:00,41.2,39.0,30.14,North,4,0.0,0.0,93,0.00,,,0.41,weatherlink.com 1.10,2013-01-12 04:58:00,